createdAt,value
2022-08-19T00:02:50.314Z,13.37
2022-08-19T00:05:54.095Z,13.40
2022-08-19T00:09:01.764Z,11.07
2022-08-19T00:12:06.264Z,10.50
2022-08-19T00:15:15.723Z,10.93
2022-08-19T00:18:19.331Z,11.47
2022-08-19T00:21:23.174Z,13.30
2022-08-19T00:24:29.740Z,11.17
2022-08-19T00:27:33.883Z,12.37
2022-08-19T00:30:37.799Z,12.97
2022-08-19T00:33:41.792Z,11.70
2022-08-19T00:36:46.115Z,14.50
2022-08-19T00:39:51.978Z,10.57
2022-08-19T00:42:55.893Z,13.33
2022-08-19T00:45:59.685Z,11.47
2022-08-19T00:49:08.671Z,10.73
2022-08-19T00:52:18.759Z,9.83
2022-08-19T00:55:29.822Z,12.10
2022-08-19T00:58:37.592Z,12.63
2022-08-19T01:01:45.626Z,10.20
2022-08-19T01:04:49.298Z,10.70
2022-08-19T01:07:53.968Z,11.43
2022-08-19T01:11:02.143Z,11.23
2022-08-19T01:14:07.508Z,9.00
2022-08-19T01:17:13.589Z,14.17
2022-08-19T01:20:22.398Z,12.13
2022-08-19T01:23:43.510Z,13.50
2022-08-19T01:26:48.258Z,13.60
2022-08-19T01:29:52.812Z,12.43
2022-08-19T01:32:57.714Z,11.13
2022-08-19T01:36:09.518Z,14.63
2022-08-19T01:39:19.202Z,14.60
2022-08-19T01:42:29.020Z,11.90
2022-08-19T01:45:36.516Z,14.33
2022-08-19T01:48:44.762Z,13.07
2022-08-19T01:51:50.503Z,12.13
2022-08-19T01:54:55.535Z,12.47
2022-08-19T01:58:04.964Z,12.73
2022-08-19T02:01:10.295Z,14.13
2022-08-19T02:04:14.056Z,9.93
2022-08-19T02:07:17.732Z,15.90
2022-08-19T02:10:24.994Z,14.20
2022-08-19T02:13:29.696Z,13.33
2022-08-19T02:16:35.589Z,12.60
2022-08-19T02:19:41.010Z,11.77
2022-08-19T02:22:45.958Z,11.30
2022-08-19T02:25:51.228Z,9.67
2022-08-19T02:28:56.201Z,15.03
2022-08-19T02:31:59.911Z,11.93
2022-08-19T02:35:04.456Z,10.07
2022-08-19T02:38:28.396Z,10.17
2022-08-19T02:41:36.350Z,12.90
2022-08-19T02:44:40.101Z,11.73
2022-08-19T02:47:44.183Z,10.13
2022-08-19T02:50:51.933Z,12.87
2022-08-19T02:53:57.676Z,10.63
2022-08-19T02:57:02.802Z,12.17
2022-08-19T03:00:09.459Z,10.57
2022-08-19T03:03:13.149Z,11.37
2022-08-19T03:06:19.002Z,11.03
2022-08-19T03:09:23.027Z,9.80
2022-08-19T03:12:28.065Z,11.47
2022-08-19T03:15:31.739Z,11.83
2022-08-19T03:18:35.266Z,11.37
2022-08-19T03:21:39.256Z,14.07
2022-08-19T03:24:43.563Z,10.57
2022-08-19T03:27:50.043Z,12.83
2022-08-19T03:31:02.790Z,9.60
2022-08-19T03:34:08.187Z,14.03
2022-08-19T03:37:14.318Z,10.83
2022-08-19T03:40:19.980Z,11.30
2022-08-19T03:43:25.583Z,10.83
2022-08-19T03:46:31.653Z,9.97
2022-08-19T03:49:36.927Z,10.73
2022-08-19T03:52:40.683Z,8.17
2022-08-19T03:55:49.065Z,8.00
2022-08-19T03:58:54.747Z,8.77
2022-08-19T04:02:01.641Z,10.77
2022-08-19T04:05:06.580Z,8.63
2022-08-19T04:08:13.759Z,7.50
2022-08-19T04:11:22.692Z,8.43
2022-08-19T04:14:47.698Z,8.37
2022-08-19T04:17:51.390Z,7.20
2022-08-19T04:20:55.001Z,8.03
2022-08-19T04:23:59.858Z,6.50
2022-08-19T04:27:05.162Z,7.47
2022-08-19T04:30:12.209Z,7.03
2022-08-19T04:33:19.697Z,6.03
2022-08-19T04:36:36.079Z,7.47
2022-08-19T04:39:58.791Z,6.30
2022-08-19T04:43:06.204Z,8.03
2022-08-19T04:46:28.517Z,8.13
2022-08-19T04:49:37.904Z,7.10
2022-08-19T04:52:44.038Z,6.10
2022-08-19T04:55:47.746Z,7.37
2022-08-19T04:58:53.082Z,5.93
2022-08-19T05:01:58.010Z,7.73
2022-08-19T05:05:02.408Z,9.20
2022-08-19T05:08:06.979Z,6.80
2022-08-19T05:11:14.925Z,7.53
2022-08-19T05:14:18.642Z,8.33
2022-08-19T05:17:27.671Z,8.67
2022-08-19T05:20:50.232Z,10.93
2022-08-19T05:23:53.831Z,10.57
2022-08-19T05:26:59.023Z,8.93
2022-08-19T05:30:03.138Z,8.37
2022-08-19T05:33:10.435Z,10.87
2022-08-19T05:36:14.404Z,11.37
2022-08-19T05:39:21.478Z,14.10
2022-08-19T05:42:25.398Z,13.20
2022-08-19T05:45:30.017Z,10.27
2022-08-19T05:48:35.037Z,13.77
2022-08-19T05:51:39.499Z,11.60
2022-08-19T05:54:44.279Z,14.97
2022-08-19T05:57:48.460Z,17.80
2022-08-19T06:00:53.500Z,13.90
2022-08-19T06:03:58.607Z,15.40
2022-08-19T06:07:12.704Z,14.77
2022-08-19T06:10:17.103Z,14.63
2022-08-19T06:13:21.049Z,13.80
2022-08-19T06:16:25.167Z,12.63
2022-08-19T06:19:33.166Z,14.63
2022-08-19T06:22:41.531Z,13.70
2022-08-19T06:25:45.183Z,11.30
2022-08-19T06:28:50.603Z,13.37
2022-08-19T06:31:59.429Z,12.40
2022-08-19T06:35:04.654Z,11.10
2022-08-19T06:38:08.284Z,11.77
2022-08-19T06:41:12.325Z,14.13
2022-08-19T06:44:17.098Z,10.00
2022-08-19T06:47:28.964Z,12.30
2022-08-19T06:50:34.186Z,9.27
2022-08-19T06:53:41.305Z,12.77
2022-08-19T06:56:46.848Z,13.73
2022-08-19T06:59:50.711Z,11.47
2022-08-19T07:02:58.665Z,11.00
2022-08-19T07:06:09.852Z,10.83
2022-08-19T07:09:25.095Z,9.70
2022-08-19T07:12:30.817Z,11.87
2022-08-19T07:15:34.774Z,10.00
2022-08-19T07:18:40.580Z,10.37
2022-08-19T07:21:53.661Z,9.17
2022-08-19T07:24:57.408Z,9.57
2022-08-19T07:28:01.567Z,9.00
2022-08-19T07:31:05.432Z,8.47
2022-08-19T07:34:12.863Z,10.37
2022-08-19T07:37:18.518Z,8.93
2022-08-19T07:40:22.327Z,9.67
2022-08-19T07:43:31.433Z,9.83
2022-08-19T07:46:47.329Z,6.97
2022-08-19T07:49:53.015Z,8.13
2022-08-19T07:52:58.046Z,6.60
2022-08-19T07:56:05.151Z,6.53
2022-08-19T07:59:10.231Z,6.97
2022-08-19T08:02:14.022Z,5.57
2022-08-19T08:05:35.747Z,5.70
2022-08-19T08:08:58.105Z,5.50
2022-08-19T08:12:32.779Z,5.73
2022-08-19T08:15:46.282Z,6.40
2022-08-19T08:18:50.541Z,5.73
2022-08-19T08:21:59.325Z,6.40
2022-08-19T08:25:08.714Z,6.00
2022-08-19T08:28:17.531Z,4.77
2022-08-19T08:31:22.191Z,6.80
2022-08-19T08:34:26.119Z,5.33
2022-08-19T08:37:29.804Z,6.17
2022-08-19T08:40:46.714Z,5.93
2022-08-19T08:43:54.451Z,6.17
2022-08-19T08:47:07.888Z,6.33
2022-08-19T08:50:20.338Z,4.47
2022-08-19T08:53:29.719Z,5.20
2022-08-19T08:56:36.884Z,4.63
2022-08-19T08:59:45.495Z,5.37
2022-08-19T09:02:50.782Z,4.43
2022-08-19T09:06:03.542Z,4.30
2022-08-19T09:09:18.877Z,3.90
2022-08-19T09:12:35.303Z,4.97
2022-08-19T09:15:47.573Z,8.63
2022-08-19T09:18:55.390Z,3.67
2022-08-19T09:22:01.672Z,4.13
2022-08-19T09:25:06.973Z,4.00
2022-08-19T09:28:15.233Z,6.33
2022-08-19T09:31:30.535Z,4.10
2022-08-19T09:34:37.972Z,7.63
2022-08-19T09:37:47.685Z,4.27
2022-08-19T09:40:51.644Z,3.50
2022-08-19T09:43:59.061Z,6.90
2022-08-19T09:47:02.921Z,3.30
2022-08-19T09:50:08.719Z,3.93
2022-08-19T09:53:12.363Z,4.17
2022-08-19T09:56:16.791Z,5.43
2022-08-19T09:59:24.830Z,6.57
2022-08-19T10:02:28.905Z,4.17
2022-08-19T10:05:55.475Z,3.73
2022-08-19T10:08:59.462Z,3.80
2022-08-19T10:12:04.636Z,3.30
2022-08-19T10:15:13.411Z,4.47
2022-08-19T10:18:19.260Z,4.33
2022-08-19T10:21:27.934Z,4.40
2022-08-19T10:24:31.824Z,4.03
2022-08-19T10:27:36.027Z,3.43
2022-08-19T10:30:42.881Z,4.63
2022-08-19T10:33:53.629Z,2.40
2022-08-19T10:37:00.983Z,5.73
2022-08-19T10:40:08.734Z,3.67
2022-08-19T10:43:12.476Z,3.77
2022-08-19T10:46:18.277Z,3.27
2022-08-19T10:49:23.899Z,3.33
2022-08-19T10:52:35.446Z,4.40
2022-08-19T10:56:11.415Z,2.77
2022-08-19T10:59:15.682Z,5.67
2022-08-19T11:02:20.780Z,4.73
2022-08-19T11:05:24.626Z,3.60
2022-08-19T11:08:28.532Z,4.00
2022-08-19T11:11:33.143Z,2.70
2022-08-19T11:14:42.072Z,4.57
2022-08-19T11:17:47.071Z,3.50
2022-08-19T11:20:50.714Z,3.97
2022-08-19T11:23:58.036Z,4.33
2022-08-19T11:27:07.267Z,4.17
2022-08-19T11:30:13.628Z,8.17
2022-08-19T11:33:19.329Z,5.27
2022-08-19T11:36:24.194Z,4.10
2022-08-19T11:39:31.774Z,5.70
2022-08-19T11:42:53.144Z,3.87
2022-08-19T11:45:57.357Z,5.03
2022-08-19T11:49:04.348Z,4.97
2022-08-19T11:52:08.639Z,2.03
2022-08-19T11:55:12.641Z,2.00
2022-08-19T11:58:19.408Z,1.70
2022-08-19T12:01:26.138Z,3.77
2022-08-19T12:04:31.223Z,2.17
2022-08-19T12:07:37.989Z,5.90
2022-08-19T12:10:43.190Z,2.97
2022-08-19T12:13:47.301Z,2.27
2022-08-19T12:16:51.444Z,2.17
2022-08-19T12:19:57.957Z,1.70
2022-08-19T12:23:05.041Z,3.30
2022-08-19T12:26:09.127Z,1.23
2022-08-19T12:29:12.743Z,3.57
2022-08-19T12:32:17.916Z,1.90
2022-08-19T12:35:23.656Z,1.23
2022-08-19T12:38:30.004Z,2.37
2022-08-19T12:41:33.617Z,1.93
2022-08-19T12:44:38.194Z,1.37
2022-08-19T12:47:45.365Z,1.57
2022-08-19T12:50:52.610Z,1.20
2022-08-19T12:57:18.526Z,2.30
2022-08-19T13:00:24.351Z,2.77
2022-08-19T13:03:30.374Z,1.33
2022-08-19T13:06:35.363Z,1.63
2022-08-19T13:09:38.989Z,2.23
2022-08-19T13:12:43.119Z,1.90
2022-08-19T13:15:47.235Z,0.90
2022-08-19T13:18:52.932Z,3.50
2022-08-19T13:22:00.364Z,2.23
2022-08-19T13:25:04.532Z,3.87
2022-08-19T13:28:08.177Z,1.77
2022-08-19T13:31:36.586Z,1.80
2022-08-19T13:34:40.465Z,0.80
2022-08-19T13:37:46.493Z,1.03
2022-08-19T13:40:52.500Z,1.67
2022-08-19T13:43:56.320Z,0.77
2022-08-19T13:47:07.953Z,0.50
2022-08-19T13:50:13.855Z,0.53
2022-08-19T13:53:19.752Z,1.57
2022-08-19T13:56:26.317Z,1.20
2022-08-19T13:59:30.304Z,1.10
2022-08-19T14:02:33.923Z,0.23
2022-08-19T14:05:40.498Z,1.67
2022-08-19T14:08:46.334Z,0.60
2022-08-19T14:11:51.888Z,2.13
2022-08-19T14:14:55.516Z,0.40
2022-08-19T14:17:59.832Z,0.40
2022-08-19T14:21:04.059Z,1.50
2022-08-19T14:24:09.472Z,0.63
2022-08-19T14:27:13.247Z,3.60
2022-08-19T14:30:22.212Z,0.93
2022-08-19T14:33:28.468Z,2.50
2022-08-19T14:36:38.937Z,1.27
2022-08-19T14:39:45.655Z,0.90
2022-08-19T14:42:50.181Z,1.53
2022-08-19T14:45:53.880Z,0.60
2022-08-19T14:48:59.883Z,1.07
2022-08-19T14:52:04.939Z,2.17
2022-08-19T14:55:11.424Z,2.60
2022-08-19T14:58:28.833Z,0.70
2022-08-19T15:01:34.049Z,0.70
2022-08-19T15:04:37.724Z,0.97
2022-08-19T15:07:41.925Z,0.93
2022-08-19T15:10:48.715Z,0.87
2022-08-19T15:13:53.987Z,0.70
2022-08-19T15:16:57.561Z,1.57
2022-08-19T15:20:01.633Z,0.80
2022-08-19T15:23:05.444Z,1.17
2022-08-19T15:26:14.262Z,1.73
2022-08-19T15:29:19.928Z,0.80
2022-08-19T15:32:24.247Z,0.67
2022-08-19T15:35:28.200Z,1.70
2022-08-19T15:38:34.464Z,1.03
2022-08-19T15:41:45.312Z,1.20
2022-08-19T15:44:49.131Z,2.40
2022-08-19T15:47:54.183Z,1.67
2022-08-19T15:50:57.959Z,1.30
2022-08-19T15:54:02.915Z,1.73
2022-08-19T15:57:25.254Z,1.37
2022-08-19T16:00:46.570Z,1.70
2022-08-19T16:04:16.576Z,2.20
2022-08-19T16:07:22.307Z,1.03
2022-08-19T16:10:28.218Z,1.00
2022-08-19T16:13:33.534Z,1.20
2022-08-19T16:16:39.835Z,1.50
2022-08-19T16:19:43.628Z,1.20
2022-08-19T16:22:47.324Z,1.67
2022-08-19T16:25:51.266Z,0.93
2022-08-19T16:28:57.311Z,0.80
2022-08-19T16:32:01.138Z,1.93
2022-08-19T16:35:07.908Z,1.60
2022-08-19T16:38:11.589Z,1.00
2022-08-19T16:41:15.471Z,1.10
2022-08-19T16:44:21.311Z,1.20
2022-08-19T16:47:24.935Z,1.07
2022-08-19T16:50:48.150Z,1.30
2022-08-19T16:53:53.741Z,1.00
2022-08-19T16:56:57.319Z,1.00
2022-08-19T17:00:05.501Z,1.70
2022-08-19T17:03:14.922Z,1.57
2022-08-19T17:06:24.125Z,0.87
2022-08-19T17:09:27.863Z,0.97
2022-08-19T17:12:37.671Z,1.00
2022-08-19T17:15:43.639Z,1.33
2022-08-19T17:18:52.295Z,1.20
2022-08-19T17:21:57.828Z,1.17
2022-08-19T17:25:01.512Z,1.60
2022-08-19T17:28:09.161Z,1.00
2022-08-19T17:31:15.249Z,1.10
2022-08-19T17:34:19.065Z,1.03
2022-08-19T17:37:24.170Z,1.20
2022-08-19T17:40:29.916Z,0.97
2022-08-19T17:43:40.091Z,2.17
2022-08-19T17:46:49.281Z,2.97
2022-08-19T17:49:53.472Z,1.60
2022-08-19T17:52:57.807Z,4.30
2022-08-19T17:56:01.410Z,3.33
2022-08-19T17:59:05.670Z,3.97
2022-08-19T18:02:13.881Z,4.63
2022-08-19T18:05:33.155Z,4.80
2022-08-19T18:08:38.885Z,2.83
2022-08-19T18:11:43.919Z,1.40
2022-08-19T18:14:48.636Z,1.90
2022-08-19T18:17:53.993Z,2.37
2022-08-19T18:20:58.122Z,2.13
2022-08-19T18:24:02.146Z,1.70
2022-08-19T18:27:06.943Z,2.03
2022-08-19T18:30:12.473Z,1.43
2022-08-19T18:33:17.485Z,3.13
2022-08-19T18:36:49.981Z,2.83
2022-08-19T18:40:03.860Z,2.10
2022-08-19T18:43:25.250Z,1.80
2022-08-19T18:46:57.999Z,2.50
2022-08-19T18:50:08.327Z,2.53
2022-08-19T18:53:16.435Z,4.60
2022-08-19T18:56:23.983Z,3.73
2022-08-19T18:59:30.376Z,2.03
2022-08-19T19:02:40.044Z,2.57
2022-08-19T19:05:45.543Z,4.50
2022-08-19T19:08:50.458Z,3.37
2022-08-19T19:11:59.041Z,4.33
2022-08-19T19:15:05.998Z,2.50
2022-08-19T19:18:09.763Z,2.10
2022-08-19T19:21:14.737Z,3.40
2022-08-19T19:24:22.567Z,2.97
2022-08-19T19:27:27.290Z,2.00
2022-08-19T19:30:31.394Z,2.53
2022-08-19T19:33:35.112Z,2.40
2022-08-19T19:36:40.408Z,2.00
2022-08-19T19:39:46.347Z,3.77
2022-08-19T19:42:52.019Z,2.53
2022-08-19T19:45:55.984Z,1.60
2022-08-19T19:49:00.474Z,3.60
2022-08-19T19:52:07.731Z,2.20
2022-08-19T19:55:19.284Z,1.70
2022-08-19T19:58:28.931Z,1.97
2022-08-19T20:01:32.954Z,3.83
2022-08-19T20:04:37.502Z,3.27
2022-08-19T20:07:59.732Z,1.40
2022-08-19T20:11:07.024Z,3.63
2022-08-19T20:14:15.435Z,2.83
2022-08-19T20:17:20.696Z,4.37
2022-08-19T20:20:24.407Z,3.70
2022-08-19T20:23:29.477Z,2.27
2022-08-19T20:26:33.816Z,2.63
2022-08-19T20:29:44.334Z,3.13
2022-08-19T20:32:50.211Z,3.63
2022-08-19T20:35:54.440Z,7.60
2022-08-19T20:39:00.085Z,3.50
2022-08-19T20:42:03.711Z,5.40
2022-08-19T20:45:09.908Z,3.30
2022-08-19T20:48:32.627Z,2.47
2022-08-19T20:51:36.244Z,2.23
2022-08-19T20:54:43.340Z,2.67
2022-08-19T20:57:46.931Z,3.43
2022-08-19T21:00:52.443Z,2.93
2022-08-19T21:03:56.184Z,2.03
2022-08-19T21:07:00.252Z,3.33
2022-08-19T21:10:06.894Z,4.67
2022-08-19T21:13:10.522Z,5.10
2022-08-19T21:16:14.279Z,2.80
2022-08-19T21:19:22.043Z,3.37
2022-08-19T21:22:27.603Z,2.20
2022-08-19T21:25:32.703Z,4.50
2022-08-19T21:28:37.802Z,5.80
2022-08-19T21:31:41.689Z,2.73
2022-08-19T21:34:46.986Z,2.13
2022-08-19T21:37:50.681Z,2.17
2022-08-19T21:40:56.226Z,3.60
2022-08-19T21:43:59.846Z,3.37
2022-08-19T21:47:04.615Z,2.60
2022-08-19T21:50:10.724Z,2.67
2022-08-19T21:53:17.629Z,2.60
2022-08-19T21:56:23.351Z,3.13
2022-08-19T21:59:27.043Z,3.47
2022-08-19T22:02:31.147Z,3.73
2022-08-19T22:05:35.711Z,5.03
2022-08-19T22:08:42.253Z,3.10
2022-08-19T22:11:47.347Z,3.77
2022-08-19T22:14:52.585Z,4.07
2022-08-19T22:18:01.306Z,3.37
2022-08-19T22:21:11.268Z,3.90
2022-08-19T22:24:15.539Z,3.90
2022-08-19T22:27:21.709Z,2.90
2022-08-19T22:30:33.509Z,3.83
2022-08-19T22:33:38.419Z,4.57
2022-08-19T22:36:42.164Z,3.97
2022-08-19T22:39:45.885Z,3.03
2022-08-19T22:43:00.169Z,4.43
2022-08-19T22:46:06.503Z,3.77
2022-08-19T22:49:21.230Z,7.03
2022-08-19T22:52:23.856Z,5.30
2022-08-19T22:55:28.846Z,3.13
2022-08-19T22:58:34.247Z,3.43
2022-08-19T23:01:39.056Z,5.43
2022-08-19T23:04:42.673Z,2.40
2022-08-19T23:07:52.084Z,2.00
2022-08-19T23:10:56.659Z,2.50
2022-08-19T23:14:01.690Z,2.30
2022-08-19T23:17:06.120Z,2.53
2022-08-19T23:20:14.400Z,2.13
2022-08-19T23:23:19.871Z,2.27
2022-08-19T23:26:23.724Z,3.37
2022-08-19T23:29:46.320Z,2.90
2022-08-19T23:32:52.530Z,2.40
2022-08-19T23:35:59.656Z,3.63
2022-08-19T23:39:03.449Z,6.23
2022-08-19T23:42:12.538Z,2.77
2022-08-19T23:45:27.432Z,2.90
2022-08-19T23:48:33.085Z,3.00
2022-08-19T23:51:36.768Z,3.10
2022-08-19T23:54:43.376Z,3.13
2022-08-19T23:57:47.714Z,2.77
